Time;durP1;ratioP1;P1;durP2;ratioP2;P2;SDS_P1;SDS_P2;PMS_P1;PMS_P2;Temp;Humidity;BMP_temperature;BMP_pressure;BME280_temperature;BME280_humidity;BME280_pressure;Samples;Min_cycle;Max_cycle;Signal;HPM_P1;HPM_P2
2023/10/27 00:00:10;;;;;;;5.65;3.25;;;;;;;17.04;80.79;94075.88;5104866;28;20201;-63
2023/10/27 00:02:38;;;;;;;7.72;3.25;;;;;;;16.93;81.35;94068.97;5105893;28;20224;-63
2023/10/27 00:05:07;;;;;;;6.25;3.55;;;;;;;16.99;81.11;94074.47;5105128;28;20205;-61
2023/10/27 00:07:34;;;;;;;8.88;3.22;;;;;;;16.81;81.85;94075.03;5105919;28;20696;-64
2023/10/27 00:10:00;;;;;;;6.30;3.45;;;;;;;16.83;81.83;94078.28;5105283;28;20254;-62
2023/10/27 00:12:27;;;;;;;6.10;3.10;;;;;;;16.74;82.18;94084.91;5104976;28;20735;-63
2023/10/27 00:14:54;;;;;;;6.72;2.95;;;;;;;16.58;82.25;94087.72;5104730;28;20845;-63
2023/10/27 00:17:21;;;;;;;9.38;3.17;;;;;;;16.66;82.11;94071.81;5105999;28;20204;-64
2023/10/27 00:19:47;;;;;;;9.98;3.20;;;;;;;16.61;82.17;94076.44;5103643;28;20232;-64
2023/10/27 00:22:15;;;;;;;3.42;2.78;;;;;;;16.56;82.30;94081.09;5104619;28;20205;-64
2023/10/27 00:24:42;;;;;;;9.00;3.47;;;;;;;16.44;82.69;94066.56;5104548;28;20253;-63
2023/10/27 00:27:09;;;;;;;10.18;3.25;;;;;;;16.36;83.03;94081.69;5103898;28;20717;-64
2023/10/27 00:29:35;;;;;;;8.70;2.97;;;;;;;16.39;83.55;94084.03;5104763;28;20265;-64
2023/10/27 00:32:02;;;;;;;8.65;3.13;;;;;;;16.38;83.49;94077.28;5104060;28;20286;-64
2023/10/27 00:34:29;;;;;;;5.38;2.70;;;;;;;16.71;81.67;94080.00;5104949;28;20254;-64
2023/10/27 00:36:55;;;;;;;7.70;3.63;;;;;;;16.69;81.46;94086.16;5104868;28;20262;-63
2023/10/27 00:39:23;;;;;;;8.13;3.25;;;;;;;16.63;82.33;94077.97;5104825;28;20193;-64
2023/10/27 00:41:50;;;;;;;5.15;2.80;;;;;;;16.63;81.65;94072.00;5104535;28;20260;-64
2023/10/27 00:44:17;;;;;;;5.68;3.42;;;;;;;16.41;82.17;94059.09;5105267;28;20225;-63
2023/10/27 00:46:44;;;;;;;5.97;2.42;;;;;;;16.51;81.86;94062.66;5104328;28;20317;-62
2023/10/27 00:49:11;;;;;;;5.68;2.38;;;;;;;16.53;82.22;94068.50;5103993;28;20257;-63
2023/10/27 00:51:39;;;;;;;4.43;3.13;;;;;;;16.59;82.08;94071.41;5104728;28;20197;-63
2023/10/27 00:54:08;;;;;;;3.28;2.97;;;;;;;16.69;81.56;94071.59;5104808;28;20262;-63
2023/10/27 00:56:37;;;;;;;5.72;2.83;;;;;;;16.74;81.02;94074.66;5104827;28;20193;-64
2023/10/27 00:59:04;;;;;;;4.55;3.30;;;;;;;16.57;81.61;94083.56;5104992;28;20363;-63
2023/10/27 01:01:31;;;;;;;7.50;3.92;;;;;;;16.59;81.80;94081.66;5103613;28;20247;-64
2023/10/27 01:03:58;;;;;;;6.10;3.10;;;;;;;16.47;82.51;94079.19;5105381;28;20213;-63
2023/10/27 01:06:25;;;;;;;3.80;2.60;;;;;;;16.59;82.12;94081.66;5104326;28;20892;-64
2023/10/27 01:08:52;;;;;;;4.15;3.13;;;;;;;16.63;81.95;94093.38;5105105;28;20258;-63
2023/10/27 01:11:19;;;;;;;9.80;3.22;;;;;;;16.46;82.30;94080.94;5104810;28;20229;-64
2023/10/27 01:13:51;;;;;;;6.90;3.70;;;;;;;16.50;82.55;94084.09;5105088;28;20193;-64
2023/10/27 01:16:18;;;;;;;8.75;5.25;;;;;;;16.47;82.44;94071.50;5102415;28;20200;-63
2023/10/27 01:18:45;;;;;;;7.72;3.28;;;;;;;16.37;100.00;94078.19;5101973;28;20204;-64
2023/10/27 01:21:11;;;;;;;8.00;3.10;;;;;;;16.38;83.22;94082.41;5102587;28;20200;-64
2023/10/27 01:23:39;;;;;;;8.05;3.08;;;;;;;16.48;82.61;94084.19;5099315;28;20225;-63
2023/10/27 01:26:06;;;;;;;7.45;3.70;;;;;;;16.48;82.61;94084.19;5102651;28;20713;-63
2023/10/27 01:28:33;;;;;;;7.88;3.17;;;;;;;16.07;83.94;94089.72;5102996;28;20232;-63
2023/10/27 01:30:59;;;;;;;8.60;4.03;;;;;;;16.10;84.03;94084.34;5103623;28;20220;-64
2023/10/27 01:33:26;;;;;;;6.85;3.53;;;;;;;16.06;84.14;94074.44;5104905;28;20220;-63
2023/10/27 01:35:53;;;;;;;5.68;3.45;;;;;;;16.09;84.34;94087.03;5103304;28;20224;-62
2023/10/27 01:38:20;;;;;;;8.32;3.75;;;;;;;15.92;85.10;94085.66;5103279;28;22089;-62
2023/10/27 01:40:48;;;;;;;6.93;3.83;;;;;;;16.06;83.43;94086.22;5104054;28;20213;-62
2023/10/27 01:43:14;;;;;;;12.25;4.15;;;;;;;15.95;84.63;94105.94;5102471;28;20277;-62
2023/10/27 01:45:41;;;;;;;7.97;4.28;;;;;;;15.95;84.63;94105.94;5087831;28;20692;-63
2023/10/27 01:48:08;;;;;;;6.13;3.92;;;;;;;16.19;84.44;92927.22;5085892;28;20671;-64
2023/10/27 01:50:34;;;;;;;11.43;5.63;;;;;;;16.11;63.33;94106.50;5094236;28;20488;-64
2023/10/27 01:53:01;;;;;;;13.07;4.57;;;;;;;16.08;85.42;94081.09;5103857;28;20253;-64
2023/10/27 01:55:29;;;;;;;9.63;3.88;;;;;;;16.14;84.49;94084.97;5104812;28;20308;-64
2023/10/27 01:57:57;;;;;;;4.88;3.60;;;;;;;16.13;84.21;94073.06;5104527;28;20198;-63
2023/10/27 02:00:24;;;;;;;5.88;3.13;;;;;;;16.24;84.45;94075.72;5103249;28;20224;-63
2023/10/27 02:02:51;;;;;;;4.82;3.90;;;;;;;15.93;84.99;94087.28;5103049;28;20735;-62
2023/10/27 02:05:17;;;;;;;11.35;3.70;;;;;;;15.97;86.28;96515.47;5104258;28;20244;-63
2023/10/27 02:07:44;;;;;;;11.57;3.80;;;;;;;15.97;86.28;94075.91;5104093;28;20603;-62
2023/10/27 02:10:11;;;;;;;8.75;3.25;;;;;;;15.96;86.16;94064.84;5103621;28;20229;-63
2023/10/27 02:12:38;;;;;;;10.23;4.10;;;;;;;15.87;86.83;94068.03;5103195;28;20201;-64
2023/10/27 02:15:08;;;;;;;7.95;2.92;;;;;;;15.87;86.83;94068.03;5103913;28;20197;-65
2023/10/27 02:17:35;;;;;;;6.78;3.30;;;;;;;15.87;100.00;85843.59;5103211;28;20623;-64
2023/10/27 02:20:01;;;;;;;8.68;4.40;;;;;;;15.83;86.19;94081.19;5104152;28;20233;-64
2023/10/27 02:22:28;;;;;;;6.60;3.88;;;;;;;15.94;87.00;94083.81;5106152;28;20225;-63
2023/10/27 02:24:56;;;;;;;10.73;4.30;;;;;;;16.05;85.66;94073.63;5105045;27;20228;-62
2023/10/27 02:27:22;;;;;;;7.25;3.33;;;;;;;16.07;86.45;56328.16;5108295;27;20713;-63
2023/10/27 02:29:49;;;;;;;4.88;3.45;;;;;;;16.24;84.76;94060.31;5102552;28;20233;-63
2023/10/27 02:32:18;;;;;;;6.05;3.75;;;;;;;16.10;86.00;94066.41;5091208;28;20260;-63
2023/10/27 02:34:44;;;;;;;5.55;3.47;;;;;;;16.10;86.00;94066.41;5104321;27;20273;-63
2023/10/27 02:37:11;;;;;;;10.45;3.92;;;;;;;16.25;85.44;94062.78;5107340;28;20200;-64
2023/10/27 02:39:39;;;;;;;5.93;3.10;;;;;;;16.25;85.44;94062.78;5108166;28;20239;-64
2023/10/27 02:42:06;;;;;;;6.50;3.30;;;;;;;16.29;85.42;94055.69;5108702;27;20213;-64
2023/10/27 02:44:33;;;;;;;7.22;3.92;;;;;;;16.36;85.07;94054.31;5107212;28;20683;-64
2023/10/27 02:46:59;;;;;;;10.55;3.60;;;;;;;16.19;85.57;94058.09;5107545;27;20220;-64
2023/10/27 02:49:27;;;;;;;8.52;3.65;;;;;;;16.19;85.57;94058.09;5106810;28;20224;-64
2023/10/27 02:51:54;;;;;;;10.20;4.60;;;;;;;16.24;85.67;94052.63;5098314;27;20202;-62
2023/10/27 02:54:21;;;;;;;8.27;3.75;;;;;;;16.22;85.96;94057.88;5095598;28;20235;-64
2023/10/27 02:56:47;;;;;;;8.00;4.80;;;;;;;16.12;87.07;94062.00;5107548;28;20653;-63
2023/10/27 02:59:14;;;;;;;13.02;5.72;;;;;;;16.16;85.45;94053.16;5106825;28;20694;-63
2023/10/27 03:01:41;;;;;;;9.18;4.35;;;;;;;16.11;86.62;75344.16;5108384;27;20663;-64
2023/10/27 03:04:07;;;;;;;9.43;4.47;;;;;;;16.14;85.22;94062.72;5103298;28;20247;-63
2023/10/27 03:06:36;;;;;;;9.25;4.22;;;;;;;15.95;87.51;94063.19;5091009;27;21849;-63
2023/10/27 03:09:02;;;;;;;10.88;4.47;;;;;;;15.95;87.35;94064.94;5097148;28;20201;-64
2023/10/27 03:11:29;;;;;;;11.95;4.15;;;;;;;16.12;85.53;94051.75;5108012;28;20662;-63
2023/10/27 03:13:56;;;;;;;7.72;4.07;;;;;;;16.35;85.64;94052.66;5106346;28;20197;-64
2023/10/27 03:16:22;;;;;;;7.57;4.05;;;;;;;16.19;86.16;94052.94;5107604;28;20205;-63
2023/10/27 03:18:50;;;;;;;11.40;4.13;;;;;;;16.07;86.75;94058.97;5106922;27;20638;-63
2023/10/27 03:21:17;;;;;;;10.40;3.92;;;;;;;16.22;85.56;94047.63;5108047;27;20201;-64
2023/10/27 03:23:45;;;;;;;8.40;4.05;;;;;;;16.18;85.65;94061.56;5106736;28;20225;-63
2023/10/27 03:26:11;;;;;;;6.68;3.75;;;;;;;16.22;85.70;94042.50;5107350;27;20285;-63
2023/10/27 03:28:38;;;;;;;4.43;3.55;;;;;;;16.05;86.56;94049.75;5107147;27;20213;-63
2023/10/27 03:31:05;;;;;;;13.00;5.05;;;;;;;15.98;86.01;94045.06;5105367;27;20248;-63
2023/10/27 03:33:31;;;;;;;9.38;4.03;;;;;;;16.00;86.96;94039.81;5106204;28;20266;-63
2023/10/27 03:35:58;;;;;;;6.38;4.18;;;;;;;16.10;85.98;94048.47;5106928;28;20274;-63
2023/10/27 03:38:25;;;;;;;16.77;4.22;;;;;;;16.00;86.92;94037.25;5106258;28;20208;-64
2023/10/27 03:40:54;;;;;;;12.35;4.50;;;;;;;16.12;86.91;94040.69;5107265;27;20201;-63
2023/10/27 03:43:21;;;;;;;11.88;3.78;;;;;;;15.90;87.24;94046.50;5105321;28;20247;-64
2023/10/27 03:45:48;;;;;;;11.23;4.40;;;;;;;15.73;87.95;94042.56;5107558;27;20270;-63
2023/10/27 03:48:15;;;;;;;6.13;3.58;;;;;;;15.89;88.45;94025.19;5107042;28;20220;-63
2023/10/27 03:50:41;;;;;;;4.70;3.40;;;;;;;15.82;88.76;47984.28;5106831;28;20298;-63
2023/10/27 03:53:08;;;;;;;11.55;4.55;;;;;;;15.82;89.04;94029.13;5106714;28;20674;-63
2023/10/27 03:55:35;;;;;;;10.60;5.45;;;;;;;15.92;87.93;94039.53;5105267;28;20200;-64
2023/10/27 03:58:15;;;;;;;11.00;4.28;;;;;;;16.23;87.42;94022.78;5107034;28;20197;-63
2023/10/27 04:00:42;;;;;;;9.05;4.47;;;;;;;16.19;87.18;94032.44;5105174;27;20247;-63
2023/10/27 04:03:09;;;;;;;9.70;4.95;;;;;;;16.20;86.85;94028.13;5107488;28;20193;-64
2023/10/27 04:05:36;;;;;;;14.18;4.72;;;;;;;16.20;85.81;94012.75;5106866;27;20851;-64
2023/10/27 04:08:04;;;;;;;13.32;4.22;;;;;;;15.92;87.58;94003.66;5106237;28;20705;-65
2023/10/27 04:10:32;;;;;;;13.48;3.78;;;;;;;15.94;86.96;94000.06;5104672;28;20289;-64
2023/10/27 04:12:59;;;;;;;14.88;3.65;;;;;;;15.90;88.06;93990.13;5091963;28;20224;-63
2023/10/27 04:15:27;;;;;;;4.80;4.03;;;;;;;15.83;88.33;93997.47;5094662;28;20239;-63
2023/10/27 04:17:54;;;;;;;9.55;3.95;;;;;;;15.86;88.29;93996.41;5106557;28;20637;-64
2023/10/27 04:20:20;;;;;;;10.57;3.40;;;;;;;16.20;89.49;93995.81;5104912;28;20209;-64
2023/10/27 04:22:47;;;;;;;8.02;3.60;;;;;;;15.72;89.88;93981.22;5099177;28;20246;-64
2023/10/27 04:25:14;;;;;;;6.35;4.00;;;;;;;15.73;88.88;93990.53;5089574;28;20201;-64
2023/10/27 04:27:41;;;;;;;5.95;3.95;;;;;;;15.91;87.76;93978.97;5091655;28;20282;-64
2023/10/27 04:30:11;;;;;;;9.52;4.35;;;;;;;15.98;88.52;93981.00;5092153;28;20767;-64
2023/10/27 04:32:40;;;;;;;6.53;4.25;;;;;;;16.01;88.85;93994.50;5099375;27;20248;-63
2023/10/27 04:35:06;;;;;;;12.00;4.10;;;;;;;16.03;87.54;93970.41;5105515;28;20633;-64
2023/10/27 04:37:33;;;;;;;9.13;3.88;;;;;;;15.98;87.42;93981.00;5105386;28;20736;-65
2023/10/27 04:40:00;;;;;;;7.68;4.28;;;;;;;15.90;87.97;93985.00;5104266;28;20712;-64
2023/10/27 04:42:27;;;;;;;31.02;17.55;;;;;;;15.98;88.25;93995.53;5105227;28;20247;-64
2023/10/27 04:44:54;;;;;;;6.70;5.45;;;;;;;16.05;88.31;93999.31;5104940;28;20249;-63
2023/10/27 04:47:20;;;;;;;13.40;5.07;;;;;;;16.04;87.83;94001.97;5101737;28;20718;-65
2023/10/27 04:49:48;;;;;;;5.63;3.80;;;;;;;16.06;88.18;93998.38;5089376;28;20201;-64
2023/10/27 04:52:15;;;;;;;15.23;5.40;;;;;;;16.00;87.70;94001.38;5089791;28;20229;-64
2023/10/27 04:54:42;;;;;;;9.32;4.30;;;;;;;16.21;87.01;93984.47;5091762;28;20255;-63
2023/10/27 04:57:08;;;;;;;8.05;4.03;;;;;;;16.07;87.35;94000.03;5087219;28;20388;-64
2023/10/27 04:59:35;;;;;;;9.65;4.13;;;;;;;16.18;87.98;93994.94;5088005;28;20242;-63
2023/10/27 05:02:02;;;;;;;7.32;4.32;;;;;;;16.36;86.85;93967.13;5090291;27;20209;-65
2023/10/27 05:04:28;;;;;;;9.32;4.57;;;;;;;16.49;86.39;93969.63;5090424;28;20197;-65
2023/10/27 05:06:58;;;;;;;8.40;4.00;;;;;;;16.46;85.49;93977.53;5089544;27;20571;-63
2023/10/27 05:09:25;;;;;;;9.23;4.32;;;;;;;16.40;85.53;93977.97;5088435;28;20232;-63
2023/10/27 05:11:52;;;;;;;16.35;4.72;;;;;;;16.32;86.64;93966.56;5088759;28;20213;-64
2023/10/27 05:14:18;;;;;;;7.85;4.07;;;;;;;16.26;87.41;93977.25;5087869;28;20652;-63
2023/10/27 05:16:45;;;;;;;8.80;4.65;;;;;;;16.38;86.84;93985.78;5089097;28;20680;-64
2023/10/27 05:19:12;;;;;;;11.65;4.90;;;;;;;16.50;86.53;93963.56;5090113;28;20194;-64
2023/10/27 05:21:39;;;;;;;11.55;4.55;;;;;;;16.42;86.26;93976.13;5089516;28;20201;-64
2023/10/27 05:24:09;;;;;;;9.95;4.78;;;;;;;16.52;84.91;93961.72;5100417;28;20209;-64
2023/10/27 05:26:35;;;;;;;6.47;3.78;;;;;;;16.47;85.67;93968.91;5105352;27;20215;-64
2023/10/27 05:29:02;;;;;;;12.27;4.53;;;;;;;16.33;85.89;93967.38;5105492;28;20788;-63
2023/10/27 05:31:29;;;;;;;10.13;3.92;;;;;;;16.46;85.27;93977.53;5103467;28;20737;-64
2023/10/27 05:33:55;;;;;;;8.32;4.45;;;;;;;16.66;84.40;93974.34;5104907;28;20679;-64
2023/10/27 05:36:22;;;;;;;13.82;3.97;;;;;;;16.76;84.23;93984.75;5104315;28;22431;-64
2023/10/27 05:38:49;;;;;;;9.73;4.18;;;;;;;16.85;84.38;93968.66;5096548;28;20618;-64
2023/10/27 05:41:17;;;;;;;13.25;4.72;;;;;;;17.08;83.14;93969.47;5088954;28;20235;-62
2023/10/27 05:43:43;;;;;;;10.43;4.20;;;;;;;17.03;83.25;93987.00;5100779;28;20240;-63
2023/10/27 05:46:10;;;;;;;7.45;4.20;;;;;;;17.04;83.09;93993.75;5089966;28;20267;-62
2023/10/27 05:48:37;;;;;;;7.18;5.05;;;;;;;17.14;82.78;93989.53;5104595;28;20228;-65
2023/10/27 05:51:04;;;;;;;11.43;3.92;;;;;;;17.31;82.94;93989.09;5104650;28;20666;-64
2023/10/27 05:53:31;;;;;;;8.65;4.93;;;;;;;17.47;82.38;93997.25;5105249;28;20232;-65
2023/10/27 05:55:58;;;;;;;23.10;4.18;;;;;;;17.71;81.18;94004.81;5104745;28;20197;-64
2023/10/27 05:58:30;;;;;;;7.93;4.90;;;;;;;17.93;80.36;94015.06;5108069;28;20229;-64
2023/10/27 06:00:57;;;;;;;9.13;4.55;;;;;;;18.13;79.75;94025.50;5108166;28;20204;-65
2023/10/27 06:03:23;;;;;;;9.68;4.30;;;;;;;18.31;78.92;94030.00;5091740;28;20290;-63
2023/10/27 06:05:52;;;;;;;11.80;4.30;;;;;;;18.41;78.27;94036.97;5094402;28;20228;-65
2023/10/27 06:08:19;;;;;;;8.60;4.93;;;;;;;18.48;77.37;94033.81;5093383;27;20221;-64
2023/10/27 06:10:45;;;;;;;4.50;4.05;;;;;;;18.53;76.50;94018.81;5092589;28;20241;-63
2023/10/27 06:13:13;;;;;;;15.52;5.30;;;;;;;18.58;76.49;94014.09;5099806;27;20631;-63
2023/10/27 06:15:42;;;;;;;13.88;5.25;;;;;;;18.70;75.94;94009.75;5107002;28;20292;-63
2023/10/27 06:18:08;;;;;;;11.18;4.72;;;;;;;18.88;75.25;94018.53;5108005;27;20205;-64
2023/10/27 06:20:35;;;;;;;20.83;5.75;;;;;;;18.92;74.93;94009.59;5107639;28;20205;-66
2023/10/27 06:23:02;;;;;;;13.52;5.43;;;;;;;19.00;75.00;93999.50;5106251;28;20232;-63
2023/10/27 06:25:28;;;;;;;16.20;5.40;;;;;;;19.10;74.39;93996.94;5108538;28;20645;-64
2023/10/27 06:27:55;;;;;;;16.20;6.10;;;;;;;19.31;73.21;94014.94;5100737;28;20268;-63
2023/10/27 06:30:23;;;;;;;7.38;4.72;;;;;;;19.23;72.85;94022.50;5090247;28;20205;-65
2023/10/27 06:32:51;;;;;;;14.55;5.53;;;;;;;18.93;73.97;94013.81;5091994;28;20339;-65
2023/10/27 06:35:17;;;;;;;18.65;5.43;;;;;;;18.72;75.05;94005.28;5095660;27;20229;-64
2023/10/27 06:37:44;;;;;;;10.70;5.25;;;;;;;18.91;74.50;94015.69;5108049;28;20247;-66
2023/10/27 06:40:12;;;;;;;8.07;4.75;;;;;;;18.98;74.24;94014.25;5108324;27;20204;-64
2023/10/27 06:42:38;;;;;;;15.35;5.38;;;;;;;18.89;73.47;94012.44;5108758;27;20246;-66
2023/10/27 06:45:08;;;;;;;15.00;3.80;;;;;;;19.01;73.45;94016.56;5106609;28;20665;-63
2023/10/27 06:47:35;;;;;;;18.48;5.00;;;;;;;19.27;72.49;94013.59;5108447;27;20276;-64
2023/10/27 06:50:04;;;;;;;16.60;5.47;;;;;;;19.27;72.29;94023.88;5107249;28;20656;-65
2023/10/27 06:52:31;;;;;;;20.15;5.32;;;;;;;19.32;72.22;94019.13;5108387;27;20650;-65
2023/10/27 06:54:58;;;;;;;17.90;5.43;;;;;;;19.32;72.22;94019.13;5107569;28;20623;-66
2023/10/27 06:57:24;;;;;;;27.60;6.05;;;;;;;19.47;71.47;94020.44;5108030;27;20226;-63
2023/10/27 06:59:51;;;;;;;17.30;6.00;;;;;;;19.41;71.65;94015.81;5107763;28;20209;-63
2023/10/27 07:02:18;;;;;;;10.52;5.88;;;;;;;19.31;72.41;94014.94;5106778;28;20228;-63
2023/10/27 07:04:44;;;;;;;14.55;4.60;;;;;;;19.16;72.70;94016.22;5107992;28;20200;-64
2023/10/27 07:07:12;;;;;;;22.58;5.68;;;;;;;19.32;72.97;94006.25;5107036;28;20666;-63
2023/10/27 07:09:39;;;;;;;14.98;5.35;;;;;;;19.65;72.16;94013.75;5088449;28;20253;-63
2023/10/27 07:12:08;;;;;;;18.30;5.35;;;;;;;19.56;71.58;94008.56;5090751;28;20294;-65
2023/10/27 07:14:34;;;;;;;18.65;6.00;;;;;;;19.30;72.00;94003.81;5090887;28;20198;-64
2023/10/27 07:17:01;;;;;;;16.75;5.00;;;;;;;19.42;72.19;94012.28;5089775;28;20240;-64
2023/10/27 07:19:28;;;;;;;17.27;5.35;;;;;;;19.61;71.33;94007.22;5091681;28;20221;-64
2023/10/27 07:21:54;;;;;;;21.10;6.10;;;;;;;19.91;71.40;94003.75;5090383;28;20278;-64
2023/10/27 07:24:22;;;;;;;14.02;5.25;;;;;;;20.21;69.49;94010.59;5088718;28;20279;-63
2023/10/27 07:26:49;;;;;;;12.02;5.65;;;;;;;20.35;69.29;94023.09;5091796;27;20198;-64
2023/10/27 07:29:16;;;;;;;21.13;6.35;;;;;;;20.43;68.17;94004.38;5090150;28;20771;-63
2023/10/27 07:31:43;;;;;;;18.00;7.07;;;;;;;20.47;68.42;94012.66;5090230;28;20304;-63
2023/10/27 07:34:09;;;;;;;17.63;7.28;;;;;;;20.59;67.78;94002.06;5089099;27;20190;-63
2023/10/27 07:36:36;;;;;;;13.90;6.75;;;;;;;20.23;68.26;94013.03;5089039;27;20290;-65
2023/10/27 07:39:03;;;;;;;14.57;8.15;;;;;;;20.11;69.15;94004.59;5088326;28;20255;-64
2023/10/27 07:41:32;;;;;;;16.27;7.60;;;;;;;20.28;69.21;94010.88;5089231;28;20263;-63
2023/10/27 07:43:59;;;;;;;17.80;9.45;;;;;;;20.41;69.30;93998.53;5089459;28;20206;-65
2023/10/27 07:46:26;;;;;;;13.18;7.18;;;;;;;20.38;68.00;94007.38;5085964;28;20573;-63
2023/10/27 07:48:52;;;;;;;19.70;7.80;;;;;;;20.58;68.29;94013.31;5086409;28;20255;-63
2023/10/27 07:51:19;;;;;;;19.27;8.77;;;;;;;21.09;66.23;94016.50;5085656;28;20201;-64
2023/10/27 07:53:46;;;;;;;23.85;7.90;;;;;;;21.58;64.67;94021.41;5083913;28;20247;-65
2023/10/27 07:56:13;;;;;;;16.88;7.90;;;;;;;21.99;62.86;94012.34;5085502;28;20206;-64
2023/10/27 07:58:41;;;;;;;19.38;7.05;;;;;;;21.90;62.85;94008.03;5086491;28;20194;-64
2023/10/27 08:01:07;;;;;;;17.63;7.30;;;;;;;22.20;61.89;94004.34;5086034;28;20634;-62
2023/10/27 08:03:34;;;;;;;19.77;7.15;;;;;;;22.35;61.64;93997.69;5086577;28;20274;-62
2023/10/27 08:06:02;;;;;;;15.43;6.60;;;;;;;22.42;61.34;93999.69;5085502;28;20201;-64
2023/10/27 08:08:28;;;;;;;13.07;6.47;;;;;;;22.53;60.42;76184.59;5085692;28;20232;-63
2023/10/27 08:10:55;;;;;;;15.05;6.47;;;;;;;22.73;59.79;93975.03;5081707;28;20649;-66
2023/10/27 08:13:22;;;;;;;13.10;5.95;;;;;;;22.85;58.42;93986.78;5083955;28;20744;-66
2023/10/27 08:15:51;;;;;;;15.10;5.32;;;;;;;23.52;56.65;93987.00;5084781;28;20656;-67
2023/10/27 08:18:18;;;;;;;10.40;5.80;;;;;;;24.38;54.76;93985.84;5085314;28;20201;-70
2023/10/27 08:20:45;;;;;;;11.93;4.72;;;;;;;25.52;51.84;93970.09;5085194;28;21024;-66
2023/10/27 08:23:11;;;;;;;7.10;4.22;;;;;;;26.50;49.27;93954.00;5084852;28;20759;-67
2023/10/27 08:25:38;;;;;;;7.28;4.55;;;;;;;27.04;46.91;93958.13;5086150;28;20202;-66
2023/10/27 08:28:05;;;;;;;10.80;4.63;;;;;;;26.88;46.87;93958.25;5083916;28;20286;-68
2023/10/27 08:30:33;;;;;;;12.40;3.35;;;;;;;25.94;46.67;93959.41;5084784;28;20201;-68
2023/10/27 08:33:01;;;;;;;14.07;2.92;;;;;;;25.42;47.78;93964.31;5084732;28;20202;-68
2023/10/27 08:35:27;;;;;;;13.15;3.08;;;;;;;25.13;48.37;93964.88;5085216;28;20232;-67
2023/10/27 08:37:54;;;;;;;6.30;2.75;;;;;;;24.80;48.91;93987.47;5084184;28;20255;-64
2023/10/27 08:40:21;;;;;;;5.60;2.50;;;;;;;24.46;48.63;93976.44;5086040;28;20233;-65
2023/10/27 08:42:49;;;;;;;12.35;3.25;;;;;;;24.24;50.37;93978.69;5084003;28;20246;-67
2023/10/27 08:45:16;;;;;;;8.43;2.67;;;;;;;24.19;49.19;93975.72;5084939;28;20726;-66
2023/10/27 08:47:43;;;;;;;8.18;2.38;;;;;;;24.20;49.66;93977.34;5085272;28;21652;-68
2023/10/27 08:50:11;;;;;;;3.97;2.38;;;;;;;24.29;49.65;93985.97;5085650;28;20718;-67
2023/10/27 08:52:39;;;;;;;6.57;2.08;;;;;;;24.67;48.54;93984.56;5084992;28;20226;-69
2023/10/27 08:55:08;;;;;;;8.43;2.78;;;;;;;24.50;47.53;93975.16;5085667;28;20205;-67
2023/10/27 08:57:35;;;;;;;8.00;2.00;;;;;;;24.18;49.12;93968.91;5085476;28;20639;-68
2023/10/27 09:00:02;;;;;;;4.57;1.40;;;;;;;23.73;49.29;93971.88;5084539;28;20283;-67
2023/10/27 09:02:30;;;;;;;2.58;1.50;;;;;;;23.50;50.80;93963.03;5083201;28;20627;-63
2023/10/27 09:05:05;;;;;;;2.60;1.13;;;;;;;23.42;50.37;93945.63;5083971;28;20285;-64
2023/10/27 09:07:33;;;;;;;6.95;3.28;;;;;;;23.32;51.53;93961.31;5083798;28;20236;-65
2023/10/27 09:10:00;;;;;;;5.78;4.80;;;;;;;23.48;51.52;93955.41;5083082;28;20750;-65
2023/10/27 09:12:29;;;;;;;3.80;2.38;;;;;;;23.64;50.94;93945.09;5083965;28;20202;-66
2023/10/27 09:15:00;;;;;;;19.33;3.45;;;;;;;23.77;50.54;93947.22;5083432;28;20194;-66
2023/10/27 09:17:29;;;;;;;8.10;2.85;;;;;;;23.78;50.03;93935.88;5085097;28;20291;-67
2023/10/27 09:20:09;;;;;;;4.13;2.28;;;;;;;24.01;49.55;93933.50;5083925;28;20190;-67
2023/10/27 09:22:37;;;;;;;2.67;1.90;;;;;;;24.27;49.15;93929.00;5085009;28;20201;-66
2023/10/27 09:25:14;;;;;;;3.75;2.13;;;;;;;24.60;48.38;93931.63;5084413;28;20825;-67
2023/10/27 09:27:44;;;;;;;2.42;2.08;;;;;;;24.84;47.93;93929.00;5085415;28;20204;-66
2023/10/27 09:30:12;;;;;;;8.90;1.50;;;;;;;24.96;47.47;93927.72;5081487;28;20227;-65
2023/10/27 09:32:40;;;;;;;4.80;1.77;;;;;;;24.76;46.68;93927.22;5083633;28;20300;-65
2023/10/27 09:35:09;;;;;;;3.95;1.27;;;;;;;24.82;46.50;93906.75;5084330;28;20696;-67
2023/10/27 09:37:38;;;;;;;6.38;3.20;;;;;;;24.96;46.83;93906.94;5084240;28;20683;-67
2023/10/27 09:40:09;;;;;;;2.55;1.45;;;;;;;25.17;46.60;93892.56;5084258;28;20225;-66
2023/10/27 09:42:37;;;;;;;5.45;3.20;;;;;;;25.30;46.41;93890.22;5083337;28;20293;-65
2023/10/27 09:45:08;;;;;;;8.15;4.22;;;;;;;25.37;46.03;93893.78;5093167;28;20748;-64
2023/10/27 09:47:39;;;;;;;2.90;2.25;;;;;;;25.27;45.17;93903.56;5101522;28;20284;-68
2023/10/27 09:50:07;;;;;;;5.35;1.38;;;;;;;25.36;44.74;93912.97;5104052;28;20249;-67
2023/10/27 09:52:35;;;;;;;7.82;4.93;;;;;;;25.40;45.69;93893.44;5101077;28;20201;-67
2023/10/27 09:55:05;;;;;;;8.60;1.92;;;;;;;25.28;45.19;93889.56;5102704;28;20262;-67
2023/10/27 09:57:32;;;;;;;9.75;5.90;;;;;;;25.30;45.29;93887.63;5099939;28;20201;-68
2023/10/27 10:00:01;;;;;;;6.20;3.60;;;;;;;25.39;45.19;93876.22;5101716;28;20197;-67
2023/10/27 10:02:30;;;;;;;5.93;2.85;;;;;;;25.54;45.16;93865.88;5100749;28;20231;-64
2023/10/27 10:05:00;;;;;;;5.20;3.38;;;;;;;25.51;44.83;93871.44;5103973;28;20207;-64
2023/10/27 10:07:34;;;;;;;5.55;3.78;;;;;;;25.55;45.16;93870.09;5101876;28;20197;-64
2023/10/27 10:10:29;;;;;;;37.78;23.05;;;;;;;25.21;46.66;93863.47;5103251;28;20221;-64
2023/10/27 10:13:08;;;;;;;8.60;5.75;;;;;;;24.58;47.48;93846.06;5101914;28;20247;-64
2023/10/27 10:15:35;;;;;;;6.97;2.95;;;;;;;24.09;48.13;93842.69;5102042;28;20192;-66
2023/10/27 10:18:03;;;;;;;11.40;2.47;;;;;;;23.83;47.73;93836.84;5101619;28;20229;-63
2023/10/27 10:20:58;;;;;;;10.00;2.13;;;;;;;23.76;47.45;93890.34;5102762;28;20281;-65
2023/10/27 10:23:58;;;;;;;5.15;2.70;;;;;;;23.70;47.72;93891.78;5104180;28;20201;-64
2023/10/27 10:27:10;;;;;;;8.55;2.45;;;;;;;23.64;48.43;93895.81;5101095;28;20274;-65
2023/10/27 10:29:37;;;;;;;5.03;1.92;;;;;;;23.70;48.66;93897.78;5099707;28;20221;-64
2023/10/27 10:32:31;;;;;;;2.45;1.30;;;;;;;23.69;48.28;93901.34;5103001;28;20217;-64
2023/10/27 10:35:19;;;;;;;2.63;1.35;;;;;;;23.79;48.08;93884.81;5093528;28;20508;-66
2023/10/27 10:37:46;;;;;;;4.47;1.55;;;;;;;23.71;47.93;93880.44;5103200;28;20198;-64
2023/10/27 10:40:18;;;;;;;4.47;2.30;;;;;;;24.02;47.98;93873.66;5104416;28;20284;-64
2023/10/27 10:43:27;;;;;;;4.47;1.30;;;;;;;24.19;47.22;93873.69;5102983;28;20645;-65
2023/10/27 10:45:55;;;;;;;4.20;1.27;;;;;;;24.21;46.28;93872.53;5108091;28;20236;-65
2023/10/27 10:48:25;;;;;;;7.93;1.27;;;;;;;24.26;46.44;93872.88;5108225;28;20254;-63
2023/10/27 10:50:53;;;;;;;3.72;1.30;;;;;;;24.42;46.28;93888.47;5106341;28;20216;-65
2023/10/27 10:53:21;;;;;;;1.38;1.00;;;;;;;24.50;46.52;93874.63;5108363;28;20294;-63
2023/10/27 10:55:49;;;;;;;2.20;1.30;;;;;;;24.48;46.61;93891.38;5107488;28;20678;-65
2023/10/27 10:58:24;;;;;;;1.38;1.05;;;;;;;24.55;46.07;93887.13;5108222;28;20197;-65
2023/10/27 11:00:51;;;;;;;3.55;1.35;;;;;;;24.61;46.48;93879.50;5106025;28;20197;-64
2023/10/27 11:03:18;;;;;;;2.03;1.30;;;;;;;24.67;45.75;93870.25;5107852;28;20630;-63
2023/10/27 11:05:47;;;;;;;2.13;1.15;;;;;;;24.71;46.33;93861.16;5107141;28;20193;-66
2023/10/27 11:08:23;;;;;;;2.75;1.30;;;;;;;24.80;45.47;93854.94;5108316;28;20232;-66
2023/10/27 11:10:59;;;;;;;2.95;1.48;;;;;;;24.64;45.44;93857.59;5105134;28;20228;-67
2023/10/27 11:13:27;;;;;;;1.83;1.15;;;;;;;24.58;45.78;93860.84;5103671;28;22036;-64
2023/10/27 11:15:54;;;;;;;1.52;1.40;;;;;;;24.50;46.06;93863.47;5107334;28;20682;-65
2023/10/27 11:18:21;;;;;;;5.53;1.25;;;;;;;24.17;47.06;93862.66;5107265;28;20250;-66
2023/10/27 11:20:49;;;;;;;2.97;1.25;;;;;;;24.21;47.48;93864.75;5107276;28;20254;-65
2023/10/27 11:23:17;;;;;;;3.50;1.95;;;;;;;24.29;47.26;93871.75;5107504;28;20204;-64
2023/10/27 11:25:45;;;;;;;5.20;1.98;;;;;;;24.21;47.51;93848.38;5108114;28;20301;-65
2023/10/27 11:28:19;;;;;;;2.67;1.70;;;;;;;24.42;47.20;93852.13;5106856;28;20739;-64
2023/10/27 11:31:01;;;;;;;5.25;1.88;;;;;;;24.38;47.54;93845.63;5104996;28;20245;-65
2023/10/27 11:33:28;;;;;;;3.92;1.85;;;;;;;24.32;47.17;93824.69;5107171;28;20285;-66